sensor_id;sensor_type;location;lat;lon;timestamp;pressure;altitude;pressure_sealevel;temperature;humidity
59375;BME280;45172;55.006;73.460;2024-03-25T11:31:17;100651.66;;;2.87;100.00
59375;BME280;45172;55.006;73.460;2024-03-25T11:35:05;100495.09;;;1.92;100.00
59375;BME280;45172;55.006;73.460;2024-03-25T11:38:58;100638.00;;;2.76;100.00
59375;BME280;45172;55.006;73.460;2024-03-25T11:45:28;100659.63;;;2.72;100.00
59375;BME280;45172;55.006;73.460;2024-03-25T11:48:00;100667.22;;;2.67;100.00
59375;BME280;45172;55.006;73.460;2024-03-25T11:50:29;100462.38;;;1.49;100.00
59375;BME280;45172;55.006;73.460;2024-03-25T11:52:56;100540.91;;;1.85;100.00
59375;BME280;45172;55.006;73.460;2024-03-25T11:55:22;100674.31;;;2.53;100.00
59375;BME280;45172;55.006;73.460;2024-03-25T11:57:58;100477.91;;;1.31;100.00
59375;BME280;45172;55.006;73.460;2024-03-25T12:03:23;100686.25;;;2.31;100.00
59375;BME280;45172;55.006;73.460;2024-03-25T12:05:49;100680.75;;;2.27;100.00
59375;BME280;45172;55.006;73.460;2024-03-25T12:08:16;100660.00;;;2.13;100.00
59375;BME280;45172;55.006;73.460;2024-03-25T12:10:45;100552.16;;;1.51;100.00
59375;BME280;45172;55.006;73.460;2024-03-25T12:13:30;100602.94;;;1.73;100.00
59375;BME280;45172;55.006;73.460;2024-03-25T12:15:56;100707.22;;;2.16;100.00
59375;BME280;45172;55.006;73.460;2024-03-25T12:18:23;100543.66;;;1.23;100.00
59375;BME280;45172;55.006;73.460;2024-03-25T12:20:49;100542.75;;;1.23;100.00
59375;BME280;45172;55.006;73.460;2024-03-25T12:23:19;100710.66;;;2.15;100.00
59375;BME280;45172;55.006;73.460;2024-03-25T12:25:49;100718.50;;;2.15;100.00
59375;BME280;45172;55.006;73.460;2024-03-25T12:28:15;100723.00;;;2.18;100.00
59375;BME280;45172;55.006;73.460;2024-03-25T12:30:50;100572.19;;;1.35;100.00
59375;BME280;45172;55.006;73.460;2024-03-25T12:33:43;100736.88;;;2.17;100.00
59375;BME280;45172;55.006;73.460;2024-03-25T12:36:13;100676.41;;;1.79;100.00
59375;BME280;45172;55.006;73.460;2024-03-25T12:38:59;100647.63;;;1.77;100.00
59375;BME280;45172;55.006;73.460;2024-03-25T12:41:36;100663.75;;;1.70;100.00
59375;BME280;45172;55.006;73.460;2024-03-25T12:44:03;100737.59;;;2.14;100.00
59375;BME280;45172;55.006;73.460;2024-03-25T12:46:30;100659.41;;;1.71;100.00
59375;BME280;45172;55.006;73.460;2024-03-25T12:48:56;100603.41;;;1.34;100.00
59375;BME280;45172;55.006;73.460;2024-03-25T12:51:23;100607.91;;;1.21;100.00
59375;BME280;45172;55.006;73.460;2024-03-25T12:53:50;100652.16;;;1.50;100.00
59375;BME280;45172;55.006;73.460;2024-03-25T12:56:17;100624.44;;;1.37;100.00
59375;BME280;45172;55.006;73.460;2024-03-25T12:58:43;100763.84;;;2.01;100.00
59375;BME280;45172;55.006;73.460;2024-03-25T13:01:10;100760.72;;;1.91;100.00
59375;BME280;45172;55.006;73.460;2024-03-25T13:03:36;100728.41;;;1.74;100.00
59375;BME280;45172;55.006;73.460;2024-03-25T13:06:03;100671.28;;;1.34;100.00
59375;BME280;45172;55.006;73.460;2024-03-25T13:08:46;100685.94;;;1.32;100.00
59375;BME280;45172;55.006;73.460;2024-03-25T13:11:12;100788.38;;;1.73;100.00
59375;BME280;45172;55.006;73.460;2024-03-25T13:13:52;100601.00;;;0.62;100.00
59375;BME280;45172;55.006;73.460;2024-03-25T13:16:18;100709.63;;;1.20;100.00
59375;BME280;45172;55.006;73.460;2024-03-25T13:19:04;100565.88;;;0.26;100.00
59375;BME280;45172;55.006;73.460;2024-03-25T13:21:31;100595.94;;;0.35;100.00
59375;BME280;45172;55.006;73.460;2024-03-25T13:24:12;100814.31;;;1.40;100.00
59375;BME280;45172;55.006;73.460;2024-03-25T13:26:38;100675.19;;;0.67;100.00
59375;BME280;45172;55.006;73.460;2024-03-25T13:29:05;100735.28;;;0.84;100.00
59375;BME280;45172;55.006;73.460;2024-03-25T13:31:34;100787.16;;;1.07;100.00
59375;BME280;45172;55.006;73.460;2024-03-25T13:34:00;100805.16;;;1.18;100.00
59375;BME280;45172;55.006;73.460;2024-03-25T13:36:31;100773.06;;;0.90;100.00
59375;BME280;45172;55.006;73.460;2024-03-25T13:39:00;100815.88;;;1.07;100.00
59375;BME280;45172;55.006;73.460;2024-03-25T13:41:47;100819.72;;;0.99;100.00
59375;BME280;45172;55.006;73.460;2024-03-25T13:44:15;100820.25;;;0.93;100.00
59375;BME280;45172;55.006;73.460;2024-03-25T13:46:50;100744.34;;;0.47;100.00
59375;BME280;45172;55.006;73.460;2024-03-25T13:49:20;100738.19;;;0.31;100.00
59375;BME280;45172;55.006;73.460;2024-03-25T13:51:51;100817.38;;;0.75;100.00
59375;BME280;45172;55.006;73.460;2024-03-25T13:54:30;100843.06;;;0.69;100.00
59375;BME280;45172;55.006;73.460;2024-03-25T13:57:28;100685.13;;;-0.25;100.00
59375;BME280;45172;55.006;73.460;2024-03-25T13:59:54;100773.16;;;0.21;100.00
59375;BME280;45172;55.006;73.460;2024-03-25T14:02:44;100733.09;;;-0.08;100.00
59375;BME280;45172;55.006;73.460;2024-03-25T14:05:19;100865.66;;;0.55;100.00
59375;BME280;45172;55.006;73.460;2024-03-25T14:07:49;100859.34;;;0.51;100.00
59375;BME280;45172;55.006;73.460;2024-03-25T14:10:19;100869.47;;;0.47;100.00
59375;BME280;45172;55.006;73.460;2024-03-25T14:12:46;100779.47;;;-0.02;100.00
59375;BME280;45172;55.006;73.460;2024-03-25T14:15:15;100671.81;;;-0.70;100.00
59375;BME280;45172;55.006;73.460;2024-03-25T14:17:45;100655.69;;;-0.78;100.00
59375;BME280;45172;55.006;73.460;2024-03-25T14:20:12;100809.44;;;-0.09;100.00
59375;BME280;45172;55.006;73.460;2024-03-25T14:22:41;100789.13;;;-0.15;100.00
59375;BME280;45172;55.006;73.460;2024-03-25T14:25:11;100891.22;;;0.34;100.00
59375;BME280;45172;55.006;73.460;2024-03-25T14:27:40;100680.22;;;-0.88;100.00
59375;BME280;45172;55.006;73.460;2024-03-25T14:30:08;100753.81;;;-0.50;100.00
59375;BME280;45172;55.006;73.460;2024-03-25T14:32:37;100899.34;;;0.25;100.00
59375;BME280;45172;55.006;73.460;2024-03-25T14:35:06;100900.94;;;0.23;100.00
59375;BME280;45172;55.006;73.460;2024-03-25T14:37:33;100894.00;;;0.10;100.00
59375;BME280;45172;55.006;73.460;2024-03-25T14:40:00;100699.88;;;-1.05;100.00
59375;BME280;45172;55.006;73.460;2024-03-25T14:42:32;100819.63;;;-0.39;100.00
59375;BME280;45172;55.006;73.460;2024-03-25T14:49:24;100936.50;;;0.09;100.00
59375;BME280;45172;55.006;73.460;2024-03-25T15:00:33;100724.59;;;-1.24;100.00
59375;BME280;45172;55.006;73.460;2024-03-25T15:07:18;100905.72;;;-0.36;100.00
59375;BME280;45172;55.006;73.460;2024-03-25T15:14:04;100836.25;;;-0.62;100.00
59375;BME280;45172;55.006;73.460;2024-03-25T15:16:30;100846.22;;;-0.57;100.00
59375;BME280;45172;55.006;73.460;2024-03-25T15:18:57;100934.72;;;-0.18;100.00
59375;BME280;45172;55.006;73.460;2024-03-25T15:21:23;100849.19;;;-0.64;100.00
59375;BME280;45172;55.006;73.460;2024-03-25T15:23:50;100854.53;;;-0.74;100.00
59375;BME280;45172;55.006;73.460;2024-03-25T15:26:16;100732.25;;;-1.39;100.00
59375;BME280;45172;55.006;73.460;2024-03-25T15:28:43;100958.53;;;-0.25;100.00
59375;BME280;45172;55.006;73.460;2024-03-25T15:31:09;100851.97;;;-0.86;100.00
59375;BME280;45172;55.006;73.460;2024-03-25T15:33:37;100863.13;;;-0.75;100.00
59375;BME280;45172;55.006;73.460;2024-03-25T15:36:04;100792.44;;;-1.20;100.00
59375;BME280;45172;55.006;73.460;2024-03-25T15:38:30;100965.84;;;-0.33;100.00
59375;BME280;45172;55.006;73.460;2024-03-25T15:40:57;100757.69;;;-1.46;100.00
59375;BME280;45172;55.006;73.460;2024-03-25T15:43:23;100844.50;;;-1.07;100.00
59375;BME280;45172;55.006;73.460;2024-03-25T15:45:54;100964.41;;;-0.41;100.00
59375;BME280;45172;55.006;73.460;2024-03-25T15:48:21;100775.56;;;-1.51;100.00
59375;BME280;45172;55.006;73.460;2024-03-25T15:50:48;100986.34;;;-0.37;100.00
59375;BME280;45172;55.006;73.460;2024-03-25T15:53:14;100958.50;;;-0.38;100.00
59375;BME280;45172;55.006;73.460;2024-03-25T15:55:42;100939.19;;;-0.54;100.00
59375;BME280;45172;55.006;73.460;2024-03-25T15:58:09;100868.31;;;-1.01;100.00
59375;BME280;45172;55.006;73.460;2024-03-25T16:00:36;100862.72;;;-1.07;100.00
59375;BME280;45172;55.006;73.460;2024-03-25T16:03:03;100726.16;;;-1.76;100.00
59375;BME280;45172;55.006;73.460;2024-03-25T16:05:29;100941.59;;;-0.57;100.00
59375;BME280;45172;55.006;73.460;2024-03-25T16:07:56;100887.19;;;-0.91;100.00
59375;BME280;45172;55.006;73.460;2024-03-25T16:10:28;100852.19;;;-1.08;100.00
59375;BME280;45172;55.006;73.460;2024-03-25T16:12:59;100955.59;;;-0.55;100.00
59375;BME280;45172;55.006;73.460;2024-03-25T16:15:26;100968.06;;;-0.51;100.00
59375;BME280;45172;55.006;73.460;2024-03-25T16:17:52;100882.41;;;-1.11;100.00
59375;BME280;45172;55.006;73.460;2024-03-25T16:20:18;100990.56;;;-0.51;100.00
59375;BME280;45172;55.006;73.460;2024-03-25T16:22:49;100864.44;;;-1.19;100.00
59375;BME280;45172;55.006;73.460;2024-03-25T16:25:16;100800.09;;;-1.59;100.00
59375;BME280;45172;55.006;73.460;2024-03-25T16:27:43;100986.31;;;-0.63;100.00
59375;BME280;45172;55.006;73.460;2024-03-25T16:30:11;100992.09;;;-0.67;100.00
59375;BME280;45172;55.006;73.460;2024-03-25T16:32:37;100843.56;;;-1.45;100.00
59375;BME280;45172;55.006;73.460;2024-03-25T16:35:04;100811.31;;;-1.72;100.00
59375;BME280;45172;55.006;73.460;2024-03-25T16:37:31;100760.97;;;-1.98;100.00
59375;BME280;45172;55.006;73.460;2024-03-25T16:39:57;100897.22;;;-1.21;100.00
59375;BME280;45172;55.006;73.460;2024-03-25T16:42:24;100834.34;;;-1.65;100.00
59375;BME280;45172;55.006;73.460;2024-03-25T16:44:51;100905.38;;;-1.29;100.00
59375;BME280;45172;55.006;73.460;2024-03-25T16:47:17;100791.56;;;-1.94;100.00
59375;BME280;45172;55.006;73.460;2024-03-25T16:49:44;100834.34;;;-1.77;100.00
59375;BME280;45172;55.006;73.460;2024-03-25T16:52:10;100818.78;;;-1.89;100.00
59375;BME280;45172;55.006;73.460;2024-03-25T16:54:37;100813.47;;;-1.90;100.00
59375;BME280;45172;55.006;73.460;2024-03-25T16:57:03;101012.72;;;-0.82;100.00
59375;BME280;45172;55.006;73.460;2024-03-25T16:59:31;100910.56;;;-1.29;100.00
59375;BME280;45172;55.006;73.460;2024-03-25T17:02:00;101014.19;;;-0.86;100.00
59375;BME280;45172;55.006;73.460;2024-03-25T17:04:27;101016.66;;;-0.87;100.00
59375;BME280;45172;55.006;73.460;2024-03-25T17:06:56;101014.88;;;-0.88;100.00
59375;BME280;45172;55.006;73.460;2024-03-25T17:09:26;100824.50;;;-1.93;100.00
59375;BME280;45172;55.006;73.460;2024-03-25T17:12:05;100914.06;;;-1.52;100.00
59375;BME280;45172;55.006;73.460;2024-03-25T17:14:37;100860.66;;;-1.84;100.00
59375;BME280;45172;55.006;73.460;2024-03-25T17:17:23;100766.84;;;-2.25;100.00
59375;BME280;45172;55.006;73.460;2024-03-25T17:20:01;100869.38;;;-1.84;100.00
59375;BME280;45172;55.006;73.460;2024-03-25T17:23:07;100902.22;;;-1.72;100.00
59375;BME280;45172;55.006;73.460;2024-03-25T17:25:39;100824.41;;;-2.18;100.00
59375;BME280;45172;55.006;73.460;2024-03-25T17:28:19;100846.53;;;-2.00;100.00
59375;BME280;45172;55.006;73.460;2024-03-25T17:31:04;100927.53;;;-1.58;100.00
59375;BME280;45172;55.006;73.460;2024-03-25T17:33:42;100842.34;;;-2.10;100.00
59375;BME280;45172;55.006;73.460;2024-03-25T17:36:13;100969.78;;;-1.36;100.00
59375;BME280;45172;55.006;73.460;2024-03-25T17:38:53;100931.38;;;-1.64;100.00
59375;BME280;45172;55.006;73.460;2024-03-25T17:41:54;100901.22;;;-1.86;100.00
59375;BME280;45172;55.006;73.460;2024-03-25T17:44:56;100924.91;;;-1.94;100.00
59375;BME280;45172;55.006;73.460;2024-03-25T17:47:48;100855.31;;;-2.22;100.00
59375;BME280;45172;55.006;73.460;2024-03-25T17:50:52;100877.38;;;-2.04;100.00
59375;BME280;45172;55.006;73.460;2024-03-25T17:53:36;100818.47;;;-2.52;100.00
59375;BME280;45172;55.006;73.460;2024-03-25T17:56:17;100946.50;;;-1.71;100.00
59375;BME280;45172;55.006;73.460;2024-03-25T17:59:01;100892.28;;;-2.02;100.00
59375;BME280;45172;55.006;73.460;2024-03-25T18:01:53;100877.25;;;-2.06;100.00
59375;BME280;45172;55.006;73.460;2024-03-25T18:04:34;101027.56;;;-1.29;100.00
59375;BME280;45172;55.006;73.460;2024-03-25T18:07:07;100786.19;;;-2.67;100.00
59375;BME280;45172;55.006;73.460;2024-03-25T18:09:40;100866.81;;;-2.30;100.00
59375;BME280;45172;55.006;73.460;2024-03-25T18:12:08;100905.13;;;-2.03;100.00
59375;BME280;45172;55.006;73.460;2024-03-25T18:18:03;100855.59;;;-2.53;100.00
59375;BME280;45172;55.006;73.460;2024-03-25T18:20:48;100943.28;;;-2.02;100.00
59375;BME280;45172;55.006;73.460;2024-03-25T18:23:51;100946.69;;;-1.91;100.00
59375;BME280;45172;55.006;73.460;2024-03-25T18:26:33;100809.97;;;-2.73;100.00
59375;BME280;45172;55.006;73.460;2024-03-25T18:29:49;100829.28;;;-2.69;100.00
59375;BME280;45172;55.006;73.460;2024-03-25T18:32:39;100829.50;;;-2.66;100.00
59375;BME280;45172;55.006;73.460;2024-03-25T18:35:45;100944.75;;;-2.06;100.00
59375;BME280;45172;55.006;73.460;2024-03-25T18:39:21;101000.72;;;-1.75;100.00
